Airfield :
LOGIN :

Register | Disclaimer

   EN    FR    IT 

 










Legend :    VFR   Marginal VFR   IFR   Intensive IFR   Very Intensive IFR
Visi :
Ceiling :
>= 8 km
>= 3000ft
5 to 8 km
1000 to 3000 ft
1500m to 5 km
500 to 1000 ft
800 to 1500m
200 to 500 ft
< 800m
< 200 ft
Symbols :   Thunderstorms  Fog  Heavy snow  Heavy precipitations  Wind > 20 kt
SIGMETs :     Misc.  Thunderstorms  Icing  Turbulence  Mountain Waves  Volcanic Ashes







- Airport Elevation : 3 ft
- IATA code : DHR


EHKD - Den Helder De Kooy

CURRENT METAR :
  • 251925Z AUTO 24008KT 9999 FEW015CB SCT052 OVC075 09/08 Q1010 BLU

EXPIRED METARs :
  • 251828Z AUTO 24013KT 9999 -RA FEW038 SCT047 BKN052 10/08 Q1010 BLU
  • 251825Z AUTO 24013KT 9999 FEW038 SCT043 BKN050 10/08 Q1009 BLU 23013KT 9999 FEW018 SCT150 TEMPO 4000 SHRA FEW012 SCT020CB BKN025
  • 251811Z AUTO 23013KT 200V260 9999 FEW058 OVC100 10/08 Q1009 BLU 23013KT 9999 FEW018 SCT150 TEMPO 4000 SHRA SCT020CB BKN025
  • 251755Z AUTO 23012KT 9999 BKN120 10/08 Q1009 BLU 24014KT 9999 FEW018 SCT150
  • 251725Z AUTO 23013KT 200V260 9999 NCD 10/08 Q1009 BLU 24014KT 9999 FEW018 SCT150
  • 251655Z AUTO 24016KT 9999 FEW049 SCT190 11/08 Q1010 BLU 24014KT 9999 FEW018 SCT150

TAF TAF EHKD
Valid from the 25 at 17:00 until the 26 at 05:00 UTC


251652Z 2517/2605 25016KT 9999 SCT045
PROB40
TEMPO 2517/2605 SCT020CB BKN025
PROB30
TEMPO 2604/2605 SCT007 BKN015
No reported NOTAMs for that airfield.



MET'MAP, your aeronautical weather chart ! - Copyright ORBIFLY December 2007 - Disclaimer

ORBIFLY MET'MAP TEAM :

Programming & Development : Alexandra Zaïnal
Concept & Development : Baudouin d'Aumeries
Co-Development & Prog : Marc-Olivier Méhu
Technical & hardware support : Manuel Goepfert

Contact : metmap@orbifly.com




SOURCES & CREDITS :

   NOAA